Terminal Aerodrome Forecast
Issued by NWS

Home | Current Version | Previous Version | Text Only | Print | Product List | Glossary On
Versions: 1 2 3 4 5 6 7 8 9 10 11 12 13 14 15 16 17 18 19 20 21 22 23 24 25
000
FTUS41 KOKX 230800 AAA
TAFGON
TAF AMD
KGON 230833Z 2309/2406 VRB05KT P6SM FEW250
     FM231300 21008KT P6SM SCT050
     FM240100 VRB05KT 6SM BR BKN250=

USA.gov is the U.S. government's official web portal to all federal, state and local government web resources and services.